createdAt,value
2018-01-26T00:02:26.444Z,101202.63
2018-01-26T00:04:54.957Z,101209.30
2018-01-26T00:07:23.422Z,101209.42
2018-01-26T00:09:51.837Z,101199.16
2018-01-26T00:12:20.360Z,101207.37
2018-01-26T00:14:48.917Z,101205.20
2018-01-26T00:17:17.381Z,101208.95
2018-01-26T00:19:45.791Z,101198.84
2018-01-26T00:22:14.266Z,101213.22
2018-01-26T00:24:42.785Z,101207.18
2018-01-26T00:27:11.265Z,101210.20
2018-01-26T00:29:39.777Z,101208.98
2018-01-26T00:32:08.232Z,101210.00
2018-01-26T00:34:36.760Z,101207.03
2018-01-26T00:37:05.241Z,101214.41
2018-01-26T00:39:33.666Z,101202.45
2018-01-26T00:42:02.176Z,101195.79
2018-01-26T00:44:30.592Z,101202.22
2018-01-26T00:46:59.053Z,101201.83
2018-01-26T00:49:27.477Z,101196.52
2018-01-26T00:51:55.928Z,101199.30
2018-01-26T00:54:24.341Z,101204.42
2018-01-26T00:56:52.771Z,101194.58
2018-01-26T00:59:21.237Z,101183.55
2018-01-26T01:01:49.665Z,101196.74
2018-01-26T01:04:18.115Z,101166.42
2018-01-26T01:06:46.675Z,101183.33
2018-01-26T01:09:15.253Z,101186.02
2018-01-26T01:11:43.685Z,101184.72
2018-01-26T01:14:12.212Z,101177.22
2018-01-26T01:16:40.758Z,101181.27
2018-01-26T01:19:09.212Z,101179.94
2018-01-26T01:21:37.664Z,101171.77
2018-01-26T01:24:06.145Z,101170.83
2018-01-26T01:26:34.604Z,101173.65
2018-01-26T01:29:03.131Z,101169.25
2018-01-26T01:31:31.521Z,101164.40
2018-01-26T01:33:59.937Z,101162.86
2018-01-26T01:36:28.398Z,101152.01
2018-01-26T01:38:56.814Z,101143.58
2018-01-26T01:41:25.276Z,101150.81
2018-01-26T01:43:53.692Z,101146.86
2018-01-26T01:46:22.120Z,101149.84
2018-01-26T01:49:02.364Z,101143.03
2018-01-26T01:51:30.813Z,101137.27
2018-01-26T01:53:59.264Z,101146.83
2018-01-26T01:56:27.731Z,101145.11
2018-01-26T01:58:56.251Z,101151.29
2018-01-26T02:01:24.777Z,101140.00
2018-01-26T02:03:53.197Z,101142.66
2018-01-26T02:06:21.713Z,101141.60
2018-01-26T02:08:50.209Z,101141.16
2018-01-26T02:11:18.664Z,101138.22
2018-01-26T02:13:47.117Z,101145.20
2018-01-26T02:16:15.576Z,101146.33
2018-01-26T02:18:44.064Z,101146.68
2018-01-26T02:21:12.545Z,101136.62
2018-01-26T02:23:41.022Z,101137.91
2018-01-26T02:26:09.461Z,101138.59
2018-01-26T02:28:37.939Z,101133.47
2018-01-26T02:31:06.411Z,101128.64
2018-01-26T02:33:34.874Z,101123.23
2018-01-26T02:36:03.359Z,101121.81
2018-01-26T02:38:31.816Z,101124.77
2018-01-26T02:41:00.256Z,101132.91
2018-01-26T02:43:28.765Z,101132.53
2018-01-26T02:45:57.185Z,101132.20
2018-01-26T02:48:25.656Z,101128.36
2018-01-26T02:50:54.118Z,101127.39
2018-01-26T02:53:22.606Z,101132.14
2018-01-26T02:55:51.045Z,101128.44
2018-01-26T02:58:19.571Z,101125.02
2018-01-26T03:00:48.020Z,101127.08
2018-01-26T03:03:16.533Z,101127.22
2018-01-26T03:05:45.040Z,101116.67
2018-01-26T03:08:13.465Z,101126.59
2018-01-26T03:10:41.993Z,101131.13
2018-01-26T03:13:10.522Z,101134.62
2018-01-26T03:15:39.081Z,101125.92
2018-01-26T03:18:07.520Z,101127.06
2018-01-26T03:20:35.972Z,101124.78
2018-01-26T03:23:04.412Z,101129.54
2018-01-26T03:25:32.928Z,101133.97
2018-01-26T03:28:01.351Z,101124.92
2018-01-26T03:30:29.870Z,101119.23
2018-01-26T03:32:58.333Z,101122.80
2018-01-26T03:35:26.752Z,101122.44
2018-01-26T03:37:55.193Z,101118.56
2018-01-26T03:40:23.697Z,101123.86
2018-01-26T03:42:52.122Z,101113.59
2018-01-26T03:45:20.641Z,101119.34
2018-01-26T03:47:49.101Z,101112.70
2018-01-26T03:50:17.564Z,101123.92
2018-01-26T03:52:45.972Z,101109.47
2018-01-26T03:55:14.432Z,101118.59
2018-01-26T03:57:42.845Z,101114.19
2018-01-26T04:00:11.266Z,101122.81
2018-01-26T04:02:39.776Z,101125.16
2018-01-26T04:05:08.221Z,101127.42
2018-01-26T04:07:36.668Z,101122.36
2018-01-26T04:10:05.066Z,101117.72
2018-01-26T04:12:33.581Z,101121.31
2018-01-26T04:15:02.053Z,101119.68
2018-01-26T04:17:30.524Z,101125.44
2018-01-26T04:19:58.941Z,101101.39
2018-01-26T04:22:27.353Z,101119.92
2018-01-26T04:24:55.819Z,101121.63
2018-01-26T04:27:24.247Z,101121.50
2018-01-26T04:29:52.717Z,101124.52
2018-01-26T04:32:21.146Z,101122.25
2018-01-26T04:34:49.641Z,101126.16
2018-01-26T04:37:18.089Z,101121.42
2018-01-26T04:39:46.625Z,101119.49
2018-01-26T04:42:15.089Z,101098.77
2018-01-26T04:44:43.530Z,101122.22
2018-01-26T04:47:12.005Z,101119.98
2018-01-26T04:49:40.434Z,101115.28
2018-01-26T04:52:08.872Z,101117.27
2018-01-26T04:54:37.317Z,101116.06
2018-01-26T04:57:05.780Z,101123.02
2018-01-26T04:59:34.261Z,101118.37
2018-01-26T05:02:02.677Z,101121.77
2018-01-26T05:04:31.133Z,101129.94
2018-01-26T05:06:59.592Z,101131.94
2018-01-26T05:09:28.088Z,101124.83
2018-01-26T05:11:56.481Z,101127.07
2018-01-26T05:14:24.985Z,101121.97
2018-01-26T05:16:53.461Z,101122.50
2018-01-26T05:19:21.899Z,101133.13
2018-01-26T05:21:50.326Z,101138.22
2018-01-26T05:24:18.937Z,101139.16
2018-01-26T05:26:47.413Z,101142.92
2018-01-26T05:29:15.824Z,101142.61
2018-01-26T05:31:44.328Z,101151.52
2018-01-26T05:34:12.759Z,101134.87
2018-01-26T05:36:41.213Z,101151.84
2018-01-26T05:39:09.675Z,101165.81
2018-01-26T05:41:38.093Z,101161.67
2018-01-26T05:44:06.598Z,101166.77
2018-01-26T05:46:35.056Z,101163.14
2018-01-26T05:49:03.533Z,101153.19
2018-01-26T05:51:31.985Z,101161.47
2018-01-26T05:54:00.410Z,101165.77
2018-01-26T05:56:28.870Z,101155.44
2018-01-26T05:58:57.310Z,101168.25
2018-01-26T06:01:25.837Z,101163.92
2018-01-26T06:03:54.244Z,101163.65
2018-01-26T06:06:22.661Z,101163.70
2018-01-26T06:08:51.109Z,101165.46
2018-01-26T06:11:19.553Z,101168.72
2018-01-26T06:13:48.018Z,101158.76
2018-01-26T06:16:16.464Z,101152.06
2018-01-26T06:18:44.933Z,101159.41
2018-01-26T06:21:13.354Z,101144.40
2018-01-26T06:23:41.877Z,101171.76
2018-01-26T06:26:10.379Z,101172.31
2018-01-26T06:28:38.866Z,101170.96
2018-01-26T06:31:07.418Z,101156.09
2018-01-26T06:33:35.868Z,101139.16
2018-01-26T06:36:04.324Z,101169.14
2018-01-26T06:38:32.908Z,101167.44
2018-01-26T06:41:01.496Z,101162.44
2018-01-26T06:43:30.256Z,101167.30
2018-01-26T06:45:58.829Z,101170.55
2018-01-26T06:48:27.442Z,101176.40
2018-01-26T06:50:56.876Z,101166.63
2018-01-26T06:53:25.334Z,101159.26
2018-01-26T06:55:53.997Z,101168.38
2018-01-26T06:58:22.539Z,101168.55
2018-01-26T07:00:51.256Z,101172.70
2018-01-26T07:03:19.732Z,101168.45
2018-01-26T07:05:48.259Z,101160.84
2018-01-26T07:08:16.813Z,101156.88
2018-01-26T07:10:45.795Z,101144.15
2018-01-26T07:13:14.229Z,101143.38
2018-01-26T07:15:42.680Z,101154.75
2018-01-26T07:18:11.163Z,101144.31
2018-01-26T07:20:39.689Z,101148.36
2018-01-26T07:23:08.341Z,101155.70
2018-01-26T07:25:37.034Z,101150.60
2018-01-26T07:28:05.749Z,101155.52
2018-01-26T07:30:34.367Z,101144.00
2018-01-26T07:33:02.798Z,101146.07
2018-01-26T07:35:32.219Z,101150.09
2018-01-26T07:38:00.640Z,101148.20
2018-01-26T07:40:29.121Z,101147.03
2018-01-26T07:42:57.719Z,101142.70
2018-01-26T07:45:26.136Z,101154.08
2018-01-26T07:47:54.573Z,101152.59
2018-01-26T07:50:23.193Z,101144.45
2018-01-26T07:52:51.628Z,101141.87
2018-01-26T07:55:20.043Z,101146.79
2018-01-26T07:57:48.573Z,101131.78
2018-01-26T08:00:17.321Z,101149.91
2018-01-26T08:02:45.843Z,101151.58
2018-01-26T08:05:14.276Z,101137.50
2018-01-26T08:07:42.772Z,101140.83
2018-01-26T08:10:11.285Z,101155.92
2018-01-26T08:12:39.753Z,101152.27
2018-01-26T08:15:08.169Z,101153.90
2018-01-26T08:17:36.653Z,101142.08
2018-01-26T08:20:05.052Z,101153.67
2018-01-26T08:22:33.509Z,101145.48
2018-01-26T08:25:01.974Z,101137.53
2018-01-26T08:27:30.439Z,101153.83
2018-01-26T08:29:58.840Z,101128.44
2018-01-26T08:32:27.341Z,101145.31
2018-01-26T08:34:55.894Z,101152.06
2018-01-26T08:37:24.401Z,101160.65
2018-01-26T08:39:52.809Z,101148.55
2018-01-26T08:42:21.246Z,101150.77
2018-01-26T08:44:49.684Z,101156.47
2018-01-26T08:47:18.985Z,101159.71
2018-01-26T08:49:47.500Z,101153.37
2018-01-26T08:52:16.006Z,101149.37
2018-01-26T08:54:44.482Z,101151.19
2018-01-26T08:57:12.949Z,101136.80
2018-01-26T08:59:41.423Z,101144.53
2018-01-26T09:02:09.893Z,101142.97
2018-01-26T09:04:38.300Z,101141.25
2018-01-26T09:07:06.784Z,101126.23
2018-01-26T09:09:35.308Z,101133.51
2018-01-26T09:12:03.858Z,101130.55
2018-01-26T09:14:32.277Z,101115.53
2018-01-26T09:17:00.751Z,101130.88
2018-01-26T09:19:29.259Z,101121.16
2018-01-26T09:21:57.771Z,101118.69
2018-01-26T09:24:26.173Z,101129.81
2018-01-26T09:26:54.659Z,101107.15
2018-01-26T09:29:23.173Z,101112.50
2018-01-26T09:31:51.664Z,101102.41
2018-01-26T09:34:20.212Z,101114.45
2018-01-26T09:36:48.624Z,101101.34
2018-01-26T09:39:17.077Z,101102.95
2018-01-26T09:41:45.497Z,101098.42
2018-01-26T09:44:14.011Z,101098.48
2018-01-26T09:46:42.473Z,101097.28
2018-01-26T09:49:10.939Z,101097.42
2018-01-26T09:51:39.465Z,101090.27
2018-01-26T09:54:07.925Z,101090.27
2018-01-26T09:56:36.333Z,101092.88
2018-01-26T09:59:04.865Z,101088.64
2018-01-26T10:01:33.269Z,101081.77
2018-01-26T10:04:01.933Z,101058.95
2018-01-26T10:06:30.398Z,101074.08
2018-01-26T10:08:58.837Z,101077.31
2018-01-26T10:11:27.373Z,101010.00
2018-01-26T10:13:55.873Z,101069.51
2018-01-26T10:16:24.349Z,101067.66
2018-01-26T10:18:52.875Z,101065.91
2018-01-26T10:21:21.437Z,101061.31
2018-01-26T10:23:49.902Z,101054.70
2018-01-26T10:26:18.305Z,101058.72
2018-01-26T10:28:46.770Z,101059.31
2018-01-26T10:31:15.317Z,101054.02
2018-01-26T10:33:43.761Z,101046.05
2018-01-26T10:36:12.220Z,101047.98
2018-01-26T10:38:40.732Z,101040.22
2018-01-26T10:41:09.210Z,101034.55
2018-01-26T10:43:37.616Z,101043.28
2018-01-26T10:46:06.081Z,101032.22
2018-01-26T10:48:34.537Z,101031.64
2018-01-26T10:51:02.953Z,101042.48
2018-01-26T10:53:31.394Z,101040.63
2018-01-26T10:55:59.813Z,101016.01
2018-01-26T10:58:28.344Z,101029.73
2018-01-26T11:00:56.870Z,101028.88
2018-01-26T11:03:25.346Z,101024.13
2018-01-26T11:05:53.829Z,101020.11
2018-01-26T11:08:22.299Z,101014.50
2018-01-26T11:10:50.752Z,100995.13
2018-01-26T11:13:19.253Z,101015.66
2018-01-26T11:15:47.716Z,100995.30
2018-01-26T11:18:16.145Z,101002.91
2018-01-26T11:20:44.590Z,101005.73
2018-01-26T11:23:13.024Z,100998.92
2018-01-26T11:25:41.420Z,100989.91
2018-01-26T11:28:09.860Z,100974.95
2018-01-26T11:30:38.368Z,100989.94
2018-01-26T11:33:06.867Z,100982.95
2018-01-26T11:35:35.297Z,100975.73
2018-01-26T11:38:03.715Z,100967.53
2018-01-26T11:40:32.153Z,100976.42
2018-01-26T11:43:00.557Z,100974.49
2018-01-26T11:45:29.001Z,100961.82
2018-01-26T11:47:57.406Z,100912.83
2018-01-26T11:50:25.853Z,100969.49
2018-01-26T11:52:54.325Z,100969.30
2018-01-26T11:55:22.757Z,100971.41
2018-01-26T11:57:51.302Z,100967.92
2018-01-26T12:00:19.779Z,100969.34
2018-01-26T12:02:48.277Z,100964.80
2018-01-26T12:05:16.680Z,100969.86
2018-01-26T12:07:45.121Z,100942.83
2018-01-26T12:10:13.602Z,100961.80
2018-01-26T12:12:42.048Z,100931.41
2018-01-26T12:15:10.456Z,100955.81
2018-01-26T12:17:38.897Z,100957.26
2018-01-26T12:20:07.393Z,100941.91
2018-01-26T12:22:35.912Z,100956.07
2018-01-26T12:25:04.413Z,100957.41
2018-01-26T12:27:32.927Z,100951.31
2018-01-26T12:30:01.489Z,100958.09
2018-01-26T12:32:29.961Z,100961.58
2018-01-26T12:34:58.402Z,100951.20
2018-01-26T12:37:26.845Z,100947.53
2018-01-26T12:39:55.280Z,100931.16
2018-01-26T12:42:23.820Z,100958.50
2018-01-26T12:44:52.225Z,100938.49
2018-01-26T12:47:20.694Z,100951.45
2018-01-26T12:49:49.141Z,100950.41
2018-01-26T12:52:17.609Z,100961.00
2018-01-26T12:54:46.053Z,100952.02
2018-01-26T12:57:14.521Z,100960.50
2018-01-26T12:59:42.976Z,100954.34
2018-01-26T13:02:11.446Z,100947.45
2018-01-26T13:04:39.921Z,100955.37
2018-01-26T13:07:08.400Z,100953.35
2018-01-26T13:09:36.914Z,100941.00
2018-01-26T13:12:05.361Z,100951.33
2018-01-26T13:14:33.817Z,100952.41
2018-01-26T13:17:02.224Z,100946.94
2018-01-26T13:19:30.713Z,100955.01
2018-01-26T13:21:59.169Z,100946.87
2018-01-26T13:24:27.649Z,100937.27
2018-01-26T13:26:56.091Z,100950.40
2018-01-26T13:29:24.496Z,100949.63
2018-01-26T13:31:52.957Z,100945.85
2018-01-26T13:34:21.365Z,100953.25
2018-01-26T13:36:49.833Z,100946.19
2018-01-26T13:39:18.570Z,100955.22
2018-01-26T13:41:47.066Z,100951.58
2018-01-26T13:44:15.503Z,100946.94
2018-01-26T13:46:43.953Z,100955.27
2018-01-26T13:49:12.393Z,100942.37
2018-01-26T13:51:40.806Z,100946.52
2018-01-26T13:54:09.256Z,100949.13
2018-01-26T13:56:37.722Z,100941.45
2018-01-26T13:59:06.210Z,100946.10
2018-01-26T14:01:34.654Z,100941.45
2018-01-26T14:04:03.198Z,100943.74
2018-01-26T14:06:31.652Z,100931.98
2018-01-26T14:09:00.049Z,100942.22
2018-01-26T14:11:28.521Z,100922.34
2018-01-26T14:13:56.977Z,100940.17
2018-01-26T14:16:25.445Z,100936.70
2018-01-26T14:18:53.975Z,100934.87
2018-01-26T14:21:22.462Z,100943.11
2018-01-26T14:23:50.872Z,100950.98
2018-01-26T14:26:19.324Z,100936.05
2018-01-26T14:28:47.745Z,100946.03
2018-01-26T14:31:16.192Z,100945.98
2018-01-26T14:33:44.617Z,100955.03
2018-01-26T14:36:13.072Z,100956.57
2018-01-26T14:38:41.525Z,100958.91
2018-01-26T14:41:09.974Z,100951.87
2018-01-26T14:43:38.389Z,100945.33
2018-01-26T14:46:06.848Z,100960.36
2018-01-26T14:48:35.325Z,100963.88
2018-01-26T14:51:03.861Z,100945.48
2018-01-26T14:53:32.305Z,100959.78
2018-01-26T14:56:00.833Z,100947.95
2018-01-26T14:58:29.273Z,100957.36
2018-01-26T15:00:57.685Z,100965.98
2018-01-26T15:03:26.125Z,100969.09
2018-01-26T15:05:54.538Z,100972.38
2018-01-26T15:08:23.034Z,100973.95
2018-01-26T15:10:51.537Z,100978.91
2018-01-26T15:13:19.976Z,100974.80
2018-01-26T15:15:48.405Z,100980.01
2018-01-26T15:18:16.846Z,100978.91
2018-01-26T15:20:45.281Z,100980.98
2018-01-26T15:23:13.812Z,100966.63
2018-01-26T15:25:42.233Z,100986.09
2018-01-26T15:28:10.788Z,100983.72
2018-01-26T15:30:39.228Z,100969.59
2018-01-26T15:33:07.653Z,100969.42
2018-01-26T15:35:37.261Z,100986.03
2018-01-26T15:38:05.715Z,100983.58
2018-01-26T15:40:34.217Z,100993.02
2018-01-26T15:43:02.649Z,100995.68
2018-01-26T15:45:31.101Z,100998.42
2018-01-26T15:47:59.547Z,101007.73
2018-01-26T15:50:28.037Z,101005.30
2018-01-26T15:52:56.523Z,101017.08
2018-01-26T15:55:24.981Z,101010.59
2018-01-26T15:57:53.417Z,101027.64
2018-01-26T16:00:21.861Z,101010.16
2018-01-26T16:02:50.366Z,101021.58
2018-01-26T16:05:18.853Z,101030.64
2018-01-26T16:07:47.337Z,101027.94
2018-01-26T16:10:15.749Z,101036.00
2018-01-26T16:12:44.192Z,101043.59
2018-01-26T16:15:12.660Z,101032.22
2018-01-26T16:17:41.056Z,101041.92
2018-01-26T16:20:09.589Z,101052.39
2018-01-26T16:22:38.097Z,101049.59
2018-01-26T16:25:06.575Z,101052.28
2018-01-26T16:27:35.109Z,101061.30
2018-01-26T16:30:03.658Z,101060.72
2018-01-26T16:32:32.180Z,101061.92
2018-01-26T16:35:00.670Z,101048.13
2018-01-26T16:37:29.141Z,101050.39
2018-01-26T16:39:57.581Z,101073.05
2018-01-26T16:42:26.136Z,101065.30
2018-01-26T16:44:54.580Z,101072.84
2018-01-26T16:47:23.017Z,101068.31
2018-01-26T16:49:51.455Z,101086.81
2018-01-26T16:52:19.969Z,101070.18
2018-01-26T16:54:48.385Z,101081.85
2018-01-26T16:57:16.792Z,101087.15
2018-01-26T16:59:45.293Z,101088.54
2018-01-26T17:02:13.757Z,101092.44
2018-01-26T17:04:42.205Z,101098.56
2018-01-26T17:07:10.605Z,101097.95
2018-01-26T17:09:39.065Z,101103.58
2018-01-26T17:12:07.524Z,101101.34
2018-01-26T17:14:35.996Z,101106.17
2018-01-26T17:17:04.405Z,101104.51
2018-01-26T17:19:32.955Z,101105.80
2018-01-26T17:22:01.416Z,101112.68
2018-01-26T17:24:29.836Z,101121.28
2018-01-26T17:26:58.322Z,101123.72
2018-01-26T17:29:26.724Z,101132.67
2018-01-26T17:31:55.230Z,101133.80
2018-01-26T17:34:23.641Z,101138.36
2018-01-26T17:36:52.076Z,101139.91
2018-01-26T17:39:20.522Z,101150.38
2018-01-26T17:41:48.976Z,101146.02
2018-01-26T17:44:17.412Z,101147.06
2018-01-26T17:46:45.862Z,101151.09
2018-01-26T17:49:14.264Z,101135.04
2018-01-26T17:51:42.708Z,101141.95
2018-01-26T17:54:11.129Z,101156.86
2018-01-26T17:56:39.601Z,101151.52
2018-01-26T17:59:08.004Z,101153.83
2018-01-26T18:01:36.395Z,101156.70
2018-01-26T18:04:04.897Z,101159.22
2018-01-26T18:06:33.385Z,101160.06
2018-01-26T18:09:01.784Z,101161.11
2018-01-26T18:11:30.346Z,101155.06
2018-01-26T18:13:58.804Z,101167.71
2018-01-26T18:16:27.292Z,101164.91
2018-01-26T18:18:55.692Z,101170.93
2018-01-26T18:21:24.193Z,101159.63
2018-01-26T18:23:52.601Z,101168.27
2018-01-26T18:26:21.109Z,101161.80
2018-01-26T18:28:49.513Z,101172.27
2018-01-26T18:31:17.913Z,101175.19
2018-01-26T18:33:46.353Z,101172.73
2018-01-26T18:36:14.814Z,101185.23
2018-01-26T18:38:43.285Z,101184.98
2018-01-26T18:41:11.786Z,101183.36
2018-01-26T18:43:40.301Z,101188.06
2018-01-26T18:46:08.788Z,101189.40
2018-01-26T18:48:37.289Z,101187.30
2018-01-26T18:51:05.727Z,101194.17
2018-01-26T18:53:34.170Z,101196.42
2018-01-26T18:56:02.621Z,101200.55
2018-01-26T18:58:31.111Z,101202.09
2018-01-26T19:00:59.537Z,101197.04
2018-01-26T19:03:28.026Z,101203.83
2018-01-26T19:05:56.479Z,101202.11
2018-01-26T19:08:24.936Z,101207.81
2018-01-26T19:10:53.444Z,101210.11
2018-01-26T19:13:21.896Z,101210.23
2018-01-26T19:15:50.384Z,101214.81
2018-01-26T19:18:18.801Z,101210.34
2018-01-26T19:20:47.309Z,101213.43
2018-01-26T19:23:15.753Z,101212.87
2018-01-26T19:25:44.225Z,101210.41
2018-01-26T19:28:12.697Z,101217.72
2018-01-26T19:30:41.129Z,101227.59
2018-01-26T19:33:09.604Z,101223.59
2018-01-26T19:35:38.129Z,101227.27
2018-01-26T19:38:06.565Z,101229.64
2018-01-26T19:40:34.972Z,101228.36
2018-01-26T19:43:03.394Z,101233.00
2018-01-26T19:45:31.897Z,101226.67
2018-01-26T19:48:00.317Z,101233.64
2018-01-26T19:50:28.774Z,101235.34
2018-01-26T19:52:57.249Z,101240.18
2018-01-26T19:55:25.731Z,101241.52
2018-01-26T19:57:54.205Z,101234.13
2018-01-26T20:00:23.513Z,101238.94
2018-01-26T20:02:52.012Z,101245.62
2018-01-26T20:05:50.729Z,101254.31
2018-01-26T20:08:28.576Z,101253.61
2018-01-26T20:10:57.106Z,101256.04
2018-01-26T20:13:28.399Z,101256.80
2018-01-26T20:15:56.910Z,101259.14
2018-01-26T20:18:25.393Z,101255.86
2018-01-26T20:20:54.817Z,101263.93
2018-01-26T20:23:23.240Z,101259.22
2018-01-26T20:25:51.760Z,101263.03
2018-01-26T20:28:20.184Z,101273.05
2018-01-26T20:30:48.640Z,101268.64
2018-01-26T20:33:17.106Z,101276.20
2018-01-26T20:35:45.614Z,101268.41
2018-01-26T20:38:14.237Z,101275.38
2018-01-26T20:40:42.676Z,101272.71
2018-01-26T20:43:11.124Z,101283.30
2018-01-26T20:45:39.576Z,101282.36
2018-01-26T20:48:08.021Z,101279.33
2018-01-26T20:50:36.505Z,101284.61
2018-01-26T20:53:04.989Z,101264.48
2018-01-26T20:55:33.478Z,101288.02
2018-01-26T20:58:01.888Z,101285.19
2018-01-26T21:00:30.393Z,101291.78
2018-01-26T21:02:58.876Z,101289.45
2018-01-26T21:05:27.285Z,101295.66
2018-01-26T21:07:55.830Z,101296.88
2018-01-26T21:10:24.247Z,101304.61
2018-01-26T21:12:52.811Z,101291.59
2018-01-26T21:15:21.333Z,101312.48
2018-01-26T21:17:49.748Z,101301.83
2018-01-26T21:20:18.248Z,101304.53
2018-01-26T21:22:46.697Z,101308.72
2018-01-26T21:25:15.132Z,101307.95
2018-01-26T21:27:43.629Z,101309.52
2018-01-26T21:30:12.089Z,101305.18
2018-01-26T21:32:40.532Z,101305.72
2018-01-26T21:35:08.945Z,101297.04
2018-01-26T21:37:37.488Z,101301.47
2018-01-26T21:40:05.900Z,101295.11
2018-01-26T21:42:34.328Z,101306.17
2018-01-26T21:45:02.800Z,101308.46
2018-01-26T21:47:31.216Z,101309.03
2018-01-26T21:49:59.733Z,101311.34
2018-01-26T21:52:28.226Z,101315.84
2018-01-26T21:54:56.685Z,101314.81
2018-01-26T21:57:25.176Z,101320.20
2018-01-26T21:59:53.705Z,101310.53
2018-01-26T22:02:22.184Z,101323.55
2018-01-26T22:04:56.194Z,101333.59
2018-01-26T22:07:30.289Z,101333.28
2018-01-26T22:09:58.732Z,101338.30
2018-01-26T22:12:27.228Z,101332.86
2018-01-26T22:14:55.698Z,101329.82
2018-01-26T22:17:24.268Z,101325.34
2018-01-26T22:19:52.785Z,101330.38
2018-01-26T22:22:21.281Z,101317.42
2018-01-26T22:24:49.753Z,101309.66
2018-01-26T22:27:18.197Z,101318.02
2018-01-26T22:29:46.608Z,101317.50
2018-01-26T22:32:15.060Z,101322.52
2018-01-26T22:34:43.523Z,101319.77
2018-01-26T22:37:11.950Z,101312.96
2018-01-26T22:39:40.409Z,101325.77
2018-01-26T22:42:08.893Z,101323.67
2018-01-26T22:44:37.402Z,101302.91
2018-01-26T22:47:05.813Z,101317.55
2018-01-26T22:49:34.301Z,101316.88
2018-01-26T22:52:02.768Z,101318.59
2018-01-26T22:54:31.295Z,101317.33
2018-01-26T22:56:59.824Z,101318.61
2018-01-26T22:59:28.391Z,101316.38
2018-01-26T23:01:56.805Z,101323.41
2018-01-26T23:04:25.320Z,101324.40
2018-01-26T23:06:53.756Z,101326.25
2018-01-26T23:09:22.187Z,101307.64
2018-01-26T23:11:50.654Z,101310.70
2018-01-26T23:14:19.068Z,101328.99
2018-01-26T23:16:47.565Z,101325.23
2018-01-26T23:19:15.972Z,101322.41
2018-01-26T23:21:44.389Z,101323.65
2018-01-26T23:24:12.913Z,101323.78
2018-01-26T23:26:41.388Z,101326.79
2018-01-26T23:29:09.829Z,101325.53
2018-01-26T23:31:38.262Z,101324.31
2018-01-26T23:34:06.769Z,101314.41
2018-01-26T23:36:35.213Z,101331.78
2018-01-26T23:39:03.741Z,101334.23
2018-01-26T23:41:32.207Z,101328.64
2018-01-26T23:44:00.701Z,101333.22
2018-01-26T23:46:29.232Z,101337.85
2018-01-26T23:48:57.694Z,101336.94
2018-01-26T23:51:26.118Z,101331.80
2018-01-26T23:53:54.657Z,101326.55
2018-01-26T23:56:23.149Z,101330.89
2018-01-26T23:58:51.690Z,101331.58
